Time;durP1;ratioP1;P1;durP2;ratioP2;P2;SDS_P1;SDS_P2;PMS_P1;PMS_P2;Temp;Humidity;BMP_temperature;BMP_pressure;BME280_temperature;BME280_humidity;BME280_pressure;Samples;Min_cycle;Max_cycle;Signal;HPM_P1;HPM_P2
2021/04/07 00:01:11;;;;;;;35.68;11.08;;;;;;;-2.53;69.41;97770.00;2198822;80;21292;-73
2021/04/07 00:04:13;;;;;;;30.37;10.03;;;;;;;-2.57;69.48;97762.84;2211170;80;21739;-73
2021/04/07 00:07:15;;;;;;;33.48;10.40;;;;;;;-2.58;69.63;97767.55;2197859;79;21326;-73
2021/04/07 00:10:18;;;;;;;31.75;10.40;;;;;;;-2.60;69.88;97762.91;2176434;80;21283;-73
2021/04/07 00:13:20;;;;;;;29.92;9.78;;;;;;;-2.66;70.10;97770.75;2190707;80;21226;-72
2021/04/07 00:16:22;;;;;;;35.58;11.30;;;;;;;-2.65;70.12;97773.72;2193445;80;21125;-73
2021/04/07 00:19:24;;;;;;;32.65;10.60;;;;;;;-2.61;69.79;97771.48;2176072;80;21273;-73
2021/04/07 00:22:26;;;;;;;33.58;10.93;;;;;;;-2.65;70.09;97772.44;2194515;79;21274;-73
2021/04/07 00:25:28;;;;;;;30.25;10.23;;;;;;;-2.71;70.09;97777.73;2195809;79;21325;-72
2021/04/07 00:28:30;;;;;;;34.45;10.95;;;;;;;-2.63;70.13;97775.80;2209681;79;21301;-72
2021/04/07 00:31:32;;;;;;;37.73;11.05;;;;;;;-2.57;70.01;97775.67;2205514;80;21288;-73
2021/04/07 00:34:34;;;;;;;33.73;10.65;;;;;;;-2.53;69.71;97777.70;2180859;80;21292;-72
2021/04/07 00:37:36;;;;;;;36.53;11.88;;;;;;;-2.52;69.77;97785.82;2189617;80;21741;-73
2021/04/07 00:40:39;;;;;;;35.70;12.35;;;;;;;-2.59;69.75;97779.98;2214844;80;21273;-73
2021/04/07 00:43:41;;;;;;;;;;;;;;;-2.56;69.72;97781.64;2196562;80;21285;-73
2021/04/07 00:46:44;;;;;;;34.88;11.43;;;;;;;-2.56;69.93;97776.05;2183314;80;20244;-73
2021/04/07 00:49:46;;;;;;;38.58;12.58;;;;;;;-2.58;70.12;97778.28;2202450;80;21288;-73
2021/04/07 00:52:49;;;;;;;37.20;11.28;;;;;;;-2.62;70.08;97781.34;2167673;80;21209;-73
2021/04/07 00:55:51;;;;;;;34.67;11.53;;;;;;;-2.65;70.30;97776.30;2204848;80;21173;-73
2021/04/07 00:58:56;;;;;;;40.45;12.75;;;;;;;-2.62;70.20;97778.33;2204688;80;21751;-72
2021/04/07 01:01:58;;;;;;;38.63;12.15;;;;;;;-2.58;70.34;97773.14;2205377;80;21200;-73
2021/04/07 01:05:02;;;;;;;40.10;13.08;;;;;;;-2.58;70.42;97776.55;2181653;80;21170;-73
2021/04/07 01:08:04;;;;;;;38.17;13.25;;;;;;;-2.63;70.64;97781.80;2194720;80;21713;-72
2021/04/07 01:11:06;;;;;;;37.03;12.88;;;;;;;-2.64;70.80;97781.84;2209420;80;21162;-73
2021/04/07 01:14:08;;;;;;;33.18;11.53;;;;;;;-2.82;70.64;97781.83;2163889;80;21329;-73
2021/04/07 01:17:10;;;;;;;37.23;11.43;;;;;;;-2.97;71.00;97783.05;2201388;80;21748;-73
2021/04/07 01:20:12;;;;;;;38.67;12.70;;;;;;;-3.02;70.82;97794.67;2200003;80;21721;-73
2021/04/07 01:23:14;;;;;;;35.85;13.00;;;;;;;-2.98;71.70;97790.33;2207480;79;21318;-73
2021/04/07 01:26:16;;;;;;;35.63;13.50;;;;;;;-2.92;71.17;97792.75;2201248;80;21642;-73
2021/04/07 01:29:18;;;;;;;38.42;13.72;;;;;;;-2.87;71.68;97792.66;2207710;80;21274;-73
2021/04/07 01:32:20;;;;;;;38.08;13.58;;;;;;;-2.87;71.82;97792.20;2202945;78;21853;-73
2021/04/07 01:35:23;;;;;;;38.38;14.68;;;;;;;-2.91;71.49;97792.33;2191040;80;21131;-73
2021/04/07 01:38:25;;;;;;;37.75;14.07;;;;;;;-2.92;71.79;97791.46;2194295;80;21285;-73
2021/04/07 01:41:27;;;;;;;44.05;15.38;;;;;;;-3.00;71.97;97788.25;2208832;80;21171;-72
2021/04/07 01:44:29;;;;;;;40.95;13.80;;;;;;;-3.04;72.13;97796.44;2204760;80;21289;-72
2021/04/07 01:47:31;;;;;;;43.00;15.08;;;;;;;-3.06;71.97;97797.34;2185983;80;21301;-73
2021/04/07 01:50:33;;;;;;;43.08;15.28;;;;;;;-3.10;72.95;97803.42;2204401;80;21766;-72
2021/04/07 01:53:35;;;;;;;42.78;15.00;;;;;;;-3.23;74.19;97802.84;2196486;79;21752;-72
2021/04/07 01:56:37;;;;;;;46.05;16.67;;;;;;;-3.26;74.92;97805.48;2181851;80;21289;-73
2021/04/07 01:59:39;;;;;;;42.55;16.25;;;;;;;-3.25;74.75;97818.73;2208243;79;21269;-72
2021/04/07 02:02:41;;;;;;;40.95;16.23;;;;;;;-3.21;74.75;97817.33;2199977;80;21708;-72
2021/04/07 02:05:44;;;;;;;43.40;15.70;;;;;;;-3.16;74.52;97813.37;2209648;79;21377;-73
2021/04/07 02:08:46;;;;;;;38.95;15.28;;;;;;;-3.11;75.16;97823.11;2201225;79;21289;-72
2021/04/07 02:11:48;;;;;;;44.15;16.32;;;;;;;-3.07;74.88;97830.32;2208665;79;21301;-73
2021/04/07 02:14:50;;;;;;;41.63;16.07;;;;;;;-3.05;74.90;97816.55;2202187;79;21395;-73
2021/04/07 02:17:52;;;;;;;41.33;16.62;;;;;;;-3.05;75.70;97817.84;2206689;80;21153;-73
2021/04/07 02:20:55;;;;;;;47.67;16.93;;;;;;;-3.06;75.98;97821.30;2209771;80;21127;-72
2021/04/07 02:23:57;;;;;;;43.10;16.32;;;;;;;-3.03;74.97;97817.38;2181523;80;21757;-73
2021/04/07 02:26:59;;;;;;;;;;;;;;;-3.01;75.73;97827.16;2190843;79;21281;-73
2021/04/07 02:30:02;;;;;;;40.98;15.03;;;;;;;-3.01;75.73;97821.20;2209785;80;20159;-72
2021/04/07 02:33:07;;;;;;;41.02;15.28;;;;;;;-3.02;76.26;97827.20;2206862;80;21575;-72
2021/04/07 02:36:09;;;;;;;43.10;16.62;;;;;;;-3.09;76.76;97817.50;2208657;79;21611;-72
2021/04/07 02:39:11;;;;;;;44.35;16.05;;;;;;;-3.03;77.25;97825.08;2181111;80;21295;-72
2021/04/07 02:42:13;;;;;;;46.58;16.55;;;;;;;-2.98;77.60;97826.25;2191394;80;21745;-72
2021/04/07 02:45:16;;;;;;;46.13;18.07;;;;;;;-2.94;77.85;97828.30;2186954;80;21294;-72
2021/04/07 02:48:18;;;;;;;45.25;17.15;;;;;;;-2.90;77.27;97838.90;2213054;80;21957;-72
2021/04/07 02:51:19;;;;;;;45.55;17.10;;;;;;;-2.85;77.19;97834.52;2200942;80;21308;-72
2021/04/07 02:54:22;;;;;;;45.65;17.45;;;;;;;-2.79;76.95;97831.80;2213897;80;21324;-72
2021/04/07 02:57:23;;;;;;;43.90;16.48;;;;;;;-2.75;77.30;97835.16;2199864;79;21280;-72
2021/04/07 03:00:25;;;;;;;44.08;16.93;;;;;;;-2.74;77.04;97832.55;2209764;80;21765;-73
2021/04/07 03:03:28;;;;;;;44.53;15.72;;;;;;;-2.71;77.15;97838.89;2193514;80;21756;-72
2021/04/07 03:06:30;;;;;;;39.53;15.65;;;;;;;-2.67;76.93;97836.66;2210371;80;21306;-72
2021/04/07 03:09:34;;;;;;;39.08;15.08;;;;;;;-2.65;76.74;97843.05;2198187;80;21294;-72
2021/04/07 03:12:36;;;;;;;41.25;15.85;;;;;;;-2.63;77.42;97839.98;2187529;80;21317;-72
2021/04/07 03:15:39;;;;;;;41.50;15.83;;;;;;;-2.59;76.90;97839.49;2205027;79;21313;-72
2021/04/07 03:18:41;;;;;;;43.87;16.67;;;;;;;-2.59;77.11;97848.03;2197234;79;21295;-72
2021/04/07 03:21:43;;;;;;;42.73;16.60;;;;;;;-2.56;77.03;97847.95;2191612;80;21961;-72
2021/04/07 03:24:47;;;;;;;44.38;16.82;;;;;;;-2.56;76.77;97846.66;2201341;80;21724;-72
2021/04/07 03:27:49;;;;;;;43.85;16.55;;;;;;;-2.57;76.62;97845.00;2191001;80;21729;-72
2021/04/07 03:30:51;;;;;;;47.10;16.82;;;;;;;-2.56;76.98;97851.80;2209179;79;21289;-72
2021/04/07 03:33:53;;;;;;;44.48;16.25;;;;;;;-2.58;77.13;97852.74;2197162;80;21285;-72
2021/04/07 03:36:55;;;;;;;51.50;19.27;;;;;;;-2.57;76.92;97847.98;2197580;79;21291;-73
2021/04/07 03:39:57;;;;;;;49.73;18.73;;;;;;;-2.52;76.50;97842.31;2190703;80;21361;-72
2021/04/07 03:42:59;;;;;;;45.80;18.70;;;;;;;-2.48;76.18;97846.05;2207901;80;21281;-72
2021/04/07 03:46:01;;;;;;;51.55;19.65;;;;;;;-2.44;76.31;97846.38;2212522;80;21764;-72
2021/04/07 03:49:03;;;;;;;43.68;17.52;;;;;;;-2.38;75.80;97851.81;2211321;80;21158;-73
2021/04/07 03:52:05;;;;;;;49.58;18.75;;;;;;;-2.29;75.66;97852.03;2176917;80;21313;-72
2021/04/07 03:55:07;;;;;;;51.77;19.85;;;;;;;-2.25;75.32;97857.49;2211640;80;21290;-73
2021/04/07 03:58:09;;;;;;;49.40;18.87;;;;;;;-2.21;75.19;97855.25;2209835;80;21375;-72
2021/04/07 04:01:11;;;;;;;49.65;20.10;;;;;;;-2.20;75.37;97862.05;2212763;80;21745;-72
2021/04/07 04:04:13;;;;;;;52.38;20.60;;;;;;;-2.17;75.04;97859.44;2199089;80;21273;-73
2021/04/07 04:07:16;;;;;;;52.70;21.00;;;;;;;-2.15;75.45;97866.66;2209383;80;21316;-72
2021/04/07 04:10:19;;;;;;;50.03;20.32;;;;;;;-2.16;75.11;97871.83;2203884;80;21395;-71
2021/04/07 04:13:24;;;;;;;52.03;19.55;;;;;;;-2.13;75.23;97869.19;2176447;80;21154;-72
2021/04/07 04:16:26;;;;;;;50.98;19.40;;;;;;;-2.11;75.33;97868.27;2209467;80;21277;-72
2021/04/07 04:19:28;;;;;;;55.33;20.15;;;;;;;-2.05;75.52;97866.41;2194688;79;21256;-72
2021/04/07 04:22:30;;;;;;;50.78;20.08;;;;;;;-2.05;75.38;97872.41;2197564;80;21292;-72
2021/04/07 04:25:32;;;;;;;59.03;23.22;;;;;;;-2.07;75.70;97875.90;2205226;80;21281;-71
2021/04/07 04:28:34;;;;;;;53.95;22.27;;;;;;;-2.11;75.50;97876.43;2207524;80;21764;-72
2021/04/07 04:31:36;;;;;;;54.35;21.80;;;;;;;-2.16;75.79;97867.53;2190145;80;21763;-72
2021/04/07 04:34:38;;;;;;;55.83;21.95;;;;;;;-2.14;75.76;97873.91;2209443;80;21293;-72
2021/04/07 04:37:42;;;;;;;53.85;21.50;;;;;;;-2.13;75.82;97879.46;2179277;80;21653;-72
2021/04/07 04:40:44;;;;;;;52.60;21.40;;;;;;;-2.09;75.95;97872.91;2203910;80;21308;-72
2021/04/07 04:43:46;;;;;;;58.60;22.55;;;;;;;-2.05;75.88;97881.41;2202326;80;21316;-72
2021/04/07 04:46:48;;;;;;;56.37;22.00;;;;;;;-1.97;76.04;97884.63;2200586;80;21289;-71
2021/04/07 04:49:50;;;;;;;55.38;21.23;;;;;;;-1.88;76.07;97891.27;2198282;80;21305;-73
2021/04/07 04:52:52;;;;;;;58.90;23.12;;;;;;;-1.75;76.26;97895.19;2211423;80;21313;-72
2021/04/07 04:55:54;;;;;;;59.48;22.37;;;;;;;-1.67;76.26;97890.29;2210915;80;21298;-73
2021/04/07 04:58:56;;;;;;;;;;;;;;;-1.54;76.53;97895.95;2199075;80;21288;-72
2021/04/07 05:02:01;;;;;;;46.15;18.07;;;;;;;-1.47;77.21;97900.05;2209397;79;20313;-72
2021/04/07 05:05:04;;;;;;;47.98;18.25;;;;;;;-1.49;77.84;97904.41;2173527;80;21662;-72
2021/04/07 05:08:06;;;;;;;43.48;14.65;;;;;;;-1.50;78.18;97910.42;2198466;80;21296;-72
2021/04/07 05:11:08;;;;;;;39.60;15.55;;;;;;;-1.51;79.27;97919.02;2208113;80;21271;-72
2021/04/07 05:14:10;;;;;;;47.10;18.10;;;;;;;-1.55;78.72;97918.27;2211911;80;21161;-72
2021/04/07 05:17:12;;;;;;;41.83;16.93;;;;;;;-1.58;79.38;97928.61;2206454;80;21372;-72
2021/04/07 05:20:14;;;;;;;41.02;16.73;;;;;;;-1.59;79.44;97928.23;2202234;80;21292;-72
2021/04/07 05:23:16;;;;;;;45.50;18.35;;;;;;;-1.57;79.70;97930.30;2199593;80;21358;-72
2021/04/07 05:26:18;;;;;;;44.33;17.95;;;;;;;-1.54;79.28;97931.95;2203044;80;21299;-72
2021/04/07 05:29:20;;;;;;;41.65;16.42;;;;;;;-1.48;79.76;97936.51;2207512;80;21281;-73
2021/04/07 05:32:22;;;;;;;38.83;14.00;;;;;;;-1.46;80.52;97939.88;2210904;80;21317;-72
2021/04/07 05:35:24;;;;;;;37.75;15.38;;;;;;;-1.49;80.94;97942.98;2213985;80;21324;-72
2021/04/07 05:38:26;;;;;;;42.55;15.78;;;;;;;-1.52;81.18;97940.05;2204824;80;21728;-73
2021/04/07 05:41:28;;;;;;;35.23;14.58;;;;;;;-1.50;81.07;97936.97;2203525;80;21297;-73
2021/04/07 05:44:30;;;;;;;38.23;14.35;;;;;;;-1.43;80.98;97951.36;2204122;80;21296;-72
2021/04/07 05:47:32;;;;;;;36.73;15.13;;;;;;;-1.33;81.01;97957.11;2165139;80;21289;-72
2021/04/07 05:50:34;;;;;;;37.38;15.30;;;;;;;-1.22;80.64;97952.52;2206255;80;21736;-72
2021/04/07 05:53:36;;;;;;;42.90;16.70;;;;;;;-1.02;79.80;97957.57;2211622;79;21745;-72
2021/04/07 05:56:38;;;;;;;44.10;16.73;;;;;;;-0.84;79.27;97955.36;2187944;80;21768;-72
2021/04/07 05:59:40;;;;;;;39.80;16.55;;;;;;;-0.66;78.74;97952.67;2209345;80;21728;-72
2021/04/07 06:02:42;;;;;;;46.23;17.10;;;;;;;-0.37;78.13;97951.36;2207576;79;21381;-72
2021/04/07 06:05:44;;;;;;;36.40;14.10;;;;;;;-0.26;77.61;97958.77;2207682;80;21761;-72
2021/04/07 06:08:46;;;;;;;37.30;14.85;;;;;;;-0.23;76.92;97961.25;2211951;80;21301;-71
2021/04/07 06:11:48;;;;;;;39.67;15.90;;;;;;;-0.18;76.77;97959.35;2214683;80;21285;-71
2021/04/07 06:14:51;;;;;;;34.90;13.25;;;;;;;0.14;76.75;97961.80;2205213;80;21751;-72
2021/04/07 06:17:56;;;;;;;31.23;12.03;;;;;;;0.22;76.08;97953.83;2191067;80;21309;-72
2021/04/07 06:20:59;;;;;;;29.90;10.48;;;;;;;0.10;75.87;97957.20;2211446;79;21285;-72
2021/04/07 06:24:01;;;;;;;28.12;10.58;;;;;;;-0.04;75.62;97955.06;2196470;80;21162;-72
2021/04/07 06:27:03;;;;;;;31.52;11.10;;;;;;;0.19;76.38;97959.06;2210212;80;21154;-71
2021/04/07 06:30:05;;;;;;;27.65;10.35;;;;;;;0.46;75.72;97960.73;2205300;80;21281;-72
2021/04/07 06:33:07;;;;;;;31.02;11.28;;;;;;;0.49;74.00;97968.83;2201730;80;21626;-72
2021/04/07 06:36:10;;;;;;;27.90;10.32;;;;;;;0.50;75.00;97965.34;2200894;80;21736;-72
2021/04/07 06:39:12;;;;;;;28.00;10.05;;;;;;;0.60;73.58;97961.53;2180777;80;21714;-72
2021/04/07 06:42:16;;;;;;;27.70;10.43;;;;;;;0.69;74.24;97959.95;2185703;80;21309;-72
2021/04/07 06:45:18;;;;;;;29.35;9.98;;;;;;;0.73;73.91;97969.70;2174523;80;21724;-72
2021/04/07 06:48:20;;;;;;;28.90;9.73;;;;;;;0.91;73.44;97966.94;2173353;80;21794;-71
2021/04/07 06:51:22;;;;;;;29.20;10.00;;;;;;;1.30;72.22;97961.21;2189232;79;21321;-72
2021/04/07 06:54:25;;;;;;;28.38;10.00;;;;;;;1.61;70.61;97968.25;2205647;80;21325;-72
2021/04/07 06:57:27;;;;;;;27.13;9.68;;;;;;;1.61;70.91;97966.95;2170395;80;21272;-72
2021/04/07 07:00:31;;;;;;;22.42;6.75;;;;;;;1.42;70.62;97968.94;2197420;80;21744;-72
2021/04/07 07:03:33;;;;;;;21.30;6.53;;;;;;;1.25;69.68;97991.56;2191876;80;21198;-72
2021/04/07 07:06:35;;;;;;;19.35;5.97;;;;;;;1.20;70.22;97983.13;2204740;80;21170;-72
2021/04/07 07:09:39;;;;;;;17.35;4.67;;;;;;;1.40;70.11;98004.35;2184367;80;21301;-72
2021/04/07 07:12:41;;;;;;;21.45;5.53;;;;;;;1.19;68.26;97999.52;2216500;79;21289;-72
2021/04/07 07:15:43;;;;;;;22.30;5.95;;;;;;;1.00;68.53;97996.29;2214980;80;21280;-72
2021/04/07 07:18:46;;;;;;;17.57;5.17;;;;;;;1.36;69.09;98004.90;2185792;80;21301;-72
2021/04/07 07:21:48;;;;;;;21.23;5.83;;;;;;;1.68;67.29;98004.59;2212857;80;21155;-73
2021/04/07 07:24:50;;;;;;;22.07;7.05;;;;;;;1.89;65.54;98005.06;2202088;80;21154;-73
2021/04/07 07:27:52;;;;;;;21.15;6.40;;;;;;;2.06;66.20;97991.48;2205549;79;21158;-73
2021/04/07 07:30:54;;;;;;;13.43;3.98;;;;;;;2.21;65.07;97998.23;2197004;79;21287;-73
2021/04/07 07:33:56;;;;;;;20.80;5.95;;;;;;;1.84;63.99;97987.61;2197018;80;21284;-73
2021/04/07 07:36:58;;;;;;;17.48;4.90;;;;;;;2.10;66.06;97999.11;2190863;80;21392;-72
2021/04/07 07:40:00;;;;;;;18.30;5.55;;;;;;;2.17;61.97;98021.25;2203323;80;21315;-73
2021/04/07 07:43:02;;;;;;;19.70;5.40;;;;;;;2.25;63.85;97998.04;2197626;80;21305;-72
2021/04/07 07:46:04;;;;;;;19.50;5.37;;;;;;;2.59;61.83;98003.14;2186848;80;21149;-73
2021/04/07 07:49:06;;;;;;;18.10;4.25;;;;;;;2.89;61.56;98000.16;2127555;83;21292;-72
2021/04/07 07:52:09;;;;;;;10.32;2.67;;;;;;;2.87;59.58;98005.02;2115412;83;21295;-73
2021/04/07 07:55:11;;;;;;;13.53;3.72;;;;;;;2.91;55.90;98013.05;2114432;83;21292;-73
2021/04/07 07:58:14;;;;;;;16.52;3.70;;;;;;;3.06;58.92;98033.55;2125794;82;21360;-73
2021/04/07 08:01:21;;;;;;;11.40;3.00;;;;;;;2.92;57.45;98005.20;2156467;81;21850;-72
2021/04/07 08:04:25;;;;;;;15.60;3.60;;;;;;;2.68;55.82;98021.33;2140588;81;21704;-73
2021/04/07 08:07:27;;;;;;;12.18;3.72;;;;;;;2.46;56.22;98018.80;2109330;81;21248;-73
2021/04/07 08:10:33;;;;;;;14.47;3.70;;;;;;;2.68;56.98;98029.09;2141375;81;21161;-73
2021/04/07 08:13:39;;;;;;;9.60;2.67;;;;;;;2.75;56.85;98020.16;2166041;82;21299;-73
2021/04/07 08:16:43;;;;;;;15.80;3.77;;;;;;;2.83;55.20;98025.47;2154079;81;21122;-73
2021/04/07 08:19:47;;;;;;;15.43;3.80;;;;;;;2.70;57.06;98027.30;2161956;81;21744;-72
2021/04/07 08:22:50;;;;;;;13.22;3.22;;;;;;;2.49;55.41;98037.25;2158163;81;23042;-73
2021/04/07 08:25:52;;;;;;;14.87;3.27;;;;;;;2.23;56.62;98031.38;2156627;82;21177;-73
2021/04/07 08:28:54;;;;;;;10.00;3.00;;;;;;;2.23;56.97;98035.26;2156448;82;21312;-73
2021/04/07 08:31:57;;;;;;;13.50;3.58;;;;;;;2.15;57.16;98046.36;2140535;82;21735;-73
2021/04/07 08:34:59;;;;;;;12.30;2.98;;;;;;;2.18;57.93;98040.59;2151050;82;21336;-72
2021/04/07 08:38:01;;;;;;;12.88;3.10;;;;;;;2.03;55.97;98052.39;2153773;81;21295;-73
2021/04/07 08:41:03;;;;;;;13.08;3.77;;;;;;;1.97;57.65;98047.89;2120333;82;21276;-73
2021/04/07 08:44:05;;;;;;;14.43;3.02;;;;;;;1.92;58.82;98062.30;2157744;80;21283;-73
2021/04/07 08:47:08;;;;;;;11.55;3.33;;;;;;;1.93;58.42;98052.82;2124328;83;21755;-73
2021/04/07 08:50:10;;;;;;;17.10;4.53;;;;;;;2.04;58.19;98061.84;2120986;83;21641;-73
2021/04/07 08:53:12;;;;;;;18.42;4.55;;;;;;;2.21;59.73;98056.45;2140246;82;21316;-73
2021/04/07 08:56:15;;;;;;;16.15;4.25;;;;;;;2.48;58.52;98048.04;2153186;81;21757;-73
2021/04/07 08:59:18;;;;;;;11.75;3.50;;;;;;;2.33;57.70;98049.94;2168989;81;21237;-73
2021/04/07 09:02:20;;;;;;;12.63;3.60;;;;;;;2.25;58.97;98069.66;2126749;83;21249;-73
2021/04/07 09:05:22;;;;;;;13.50;3.52;;;;;;;2.05;59.26;98070.44;2129622;82;21729;-73
2021/04/07 09:08:25;;;;;;;15.38;3.92;;;;;;;1.96;59.68;98085.03;2152434;81;21297;-73
2021/04/07 09:11:30;;;;;;;12.88;3.22;;;;;;;1.92;60.15;98079.11;2132196;82;21325;-73
2021/04/07 09:14:40;;;;;;;15.90;3.50;;;;;;;2.14;60.38;98071.83;2130143;82;21158;-73
2021/04/07 09:17:45;;;;;;;11.95;3.50;;;;;;;2.44;60.90;98076.24;2147212;81;21371;-73
2021/04/07 09:20:53;;;;;;;14.20;3.72;;;;;;;2.70;58.27;98070.47;2161690;81;21263;-73
2021/04/07 09:24:01;;;;;;;15.85;3.52;;;;;;;2.62;56.86;98069.95;2160314;81;21344;-73
2021/04/07 09:27:02;;;;;;;12.30;3.40;;;;;;;2.59;55.85;98063.15;2150037;81;21280;-73
2021/04/07 09:30:05;;;;;;;12.07;3.27;;;;;;;2.79;55.99;98073.98;2158083;81;21136;-73
2021/04/07 09:33:08;;;;;;;15.13;4.03;;;;;;;3.37;57.72;98069.36;2159418;80;21161;-73
2021/04/07 09:36:10;;;;;;;;;;;;;;;4.03;54.01;98056.46;2146850;81;21288;-73
2021/04/07 09:39:12;;;;;;;14.63;4.10;;;;;;;4.28;55.17;98053.56;2167202;80;20221;-73
2021/04/07 09:42:14;;;;;;;15.63;4.60;;;;;;;4.76;52.96;98055.61;2158235;81;21601;-73
2021/04/07 09:45:16;;;;;;;14.00;3.98;;;;;;;4.55;55.22;98043.20;2140851;81;21278;-72
2021/04/07 09:48:18;;;;;;;16.55;4.25;;;;;;;4.78;52.40;98032.97;2107577;83;21828;-72
2021/04/07 09:51:21;;;;;;;10.38;3.40;;;;;;;4.90;53.97;98036.27;2149769;81;21739;-72
2021/04/07 09:54:23;;;;;;;15.65;3.60;;;;;;;4.57;50.64;98056.95;2118005;83;21339;-72
2021/04/07 09:57:25;;;;;;;11.28;3.40;;;;;;;3.89;53.12;98063.58;2129082;82;21173;-73
2021/04/07 10:00:28;;;;;;;14.28;3.52;;;;;;;3.52;53.51;98067.86;2138379;82;21355;-72
2021/04/07 10:03:30;;;;;;;14.05;4.12;;;;;;;3.36;53.67;98065.10;2131764;83;21305;-72
2021/04/07 10:06:32;;;;;;;17.25;4.17;;;;;;;3.32;54.00;98071.76;2111081;83;21328;-72
2021/04/07 10:09:35;;;;;;;16.42;4.03;;;;;;;3.21;54.33;98062.70;2130771;81;21315;-73
2021/04/07 10:12:37;;;;;;;16.20;4.60;;;;;;;3.51;54.88;98066.16;2121578;83;21299;-73
2021/04/07 10:15:39;;;;;;;17.65;4.62;;;;;;;3.89;53.66;98062.75;2110514;82;21313;-72
2021/04/07 10:18:41;;;;;;;16.15;4.45;;;;;;;4.28;52.71;98067.84;2167947;80;21404;-72
2021/04/07 10:21:44;;;;;;;16.90;4.70;;;;;;;4.27;53.50;98069.22;2145093;81;21304;-72
2021/04/07 10:24:47;;;;;;;17.37;4.30;;;;;;;3.93;54.64;98046.12;2168699;80;21737;-73
2021/04/07 10:27:49;;;;;;;19.02;4.45;;;;;;;3.61;54.07;98065.30;2176590;81;21308;-72
2021/04/07 10:30:51;;;;;;;14.85;3.52;;;;;;;3.29;55.14;98068.41;2161052;81;21300;-73
2021/04/07 10:33:53;;;;;;;15.25;3.83;;;;;;;2.84;55.79;98100.52;2174524;81;21166;-72
2021/04/07 10:36:55;;;;;;;15.20;4.00;;;;;;;2.27;62.57;98118.34;2192451;80;21183;-74
2021/04/07 10:39:57;;;;;;;16.07;4.03;;;;;;;1.83;65.98;98119.09;2212168;80;21159;-73
2021/04/07 10:42:59;;;;;;;14.20;4.00;;;;;;;1.80;68.15;98122.27;2202613;80;21293;-72
2021/04/07 10:46:01;;;;;;;16.00;3.77;;;;;;;2.17;66.11;98127.33;2208948;79;21803;-73
2021/04/07 10:49:03;;;;;;;12.95;3.80;;;;;;;2.66;65.63;98118.97;2203746;79;21367;-73
2021/04/07 10:52:05;;;;;;;13.95;3.95;;;;;;;3.61;63.02;98111.52;2210796;80;21296;-73
2021/04/07 10:55:08;;;;;;;13.18;3.47;;;;;;;4.30;63.93;98113.20;2196487;79;21752;-73
2021/04/07 10:58:11;;;;;;;8.95;2.98;;;;;;;4.64;59.07;98108.55;2191535;80;21309;-73
2021/04/07 11:01:13;;;;;;;13.38;3.50;;;;;;;4.92;57.07;98099.86;2207552;80;21274;-73
2021/04/07 11:04:17;;;;;;;11.43;3.30;;;;;;;5.20;55.94;98104.05;2206514;80;21706;-73
2021/04/07 11:07:20;;;;;;;8.23;2.75;;;;;;;5.45;52.55;98107.17;2191640;80;21574;-72
2021/04/07 11:10:22;;;;;;;13.62;3.42;;;;;;;5.87;53.59;98105.36;2193863;80;21741;-72
2021/04/07 11:13:24;;;;;;;12.80;3.33;;;;;;;6.18;53.96;98107.66;2199358;79;21826;-72
2021/04/07 11:16:26;;;;;;;5.35;2.17;;;;;;;5.75;56.40;98128.14;2199673;80;21733;-72
2021/04/07 11:19:28;;;;;;;8.15;2.37;;;;;;;5.10;56.93;98122.34;2187645;80;21729;-73
2021/04/07 11:22:30;;;;;;;8.70;2.62;;;;;;;4.58;57.06;98123.11;2200725;80;21728;-73
2021/04/07 11:25:33;;;;;;;9.20;2.77;;;;;;;4.26;56.69;98119.45;2196010;79;21299;-73
2021/04/07 11:28:35;;;;;;;10.85;2.60;;;;;;;3.87;58.58;98124.26;2189277;80;21289;-73
2021/04/07 11:31:37;;;;;;;9.60;3.02;;;;;;;3.50;58.51;98118.92;2208220;80;21159;-73
2021/04/07 11:34:48;;;;;;;15.05;4.10;;;;;;;3.15;61.37;98134.24;2206588;79;21301;-73
2021/04/07 11:37:49;;;;;;;20.02;4.95;;;;;;;2.49;66.71;98123.97;2169099;79;21357;-73
2021/04/07 11:41:04;;;;;;;18.35;4.85;;;;;;;2.24;69.12;98138.70;2195186;80;21275;-73
2021/04/07 11:47:14;;;;;;;20.08;6.00;;;;;;;2.54;70.63;98149.21;2191713;80;21270;-74
2021/04/07 11:50:16;;;;;;;18.25;4.90;;;;;;;3.26;70.06;98135.94;2206321;80;21328;-74
2021/04/07 11:53:20;;;;;;;18.02;4.80;;;;;;;3.74;65.98;98133.04;2202186;79;21348;-74
2021/04/07 11:56:24;;;;;;;14.80;3.85;;;;;;;4.37;63.18;98126.72;2204924;80;21729;-73
2021/04/07 11:59:26;;;;;;;17.10;4.40;;;;;;;5.15;59.68;98121.63;2193070;80;21268;-72
2021/04/07 12:02:28;;;;;;;19.77;5.60;;;;;;;5.30;55.49;98121.34;2170006;80;21145;-73
2021/04/07 12:05:33;;;;;;;19.52;5.40;;;;;;;5.55;56.33;98114.40;2193454;80;21269;-73
2021/04/07 12:08:35;;;;;;;19.67;4.95;;;;;;;6.21;57.64;98121.81;2198662;79;21324;-73
2021/04/07 12:11:37;;;;;;;18.80;5.15;;;;;;;6.72;55.74;98098.61;2180344;80;21327;-72
2021/04/07 12:14:39;;;;;;;16.67;4.28;;;;;;;7.41;55.06;98106.35;2214618;79;21300;-72
2021/04/07 12:17:43;;;;;;;15.20;4.10;;;;;;;6.36;54.13;98121.89;2202484;80;21311;-72
2021/04/07 12:20:45;;;;;;;11.15;3.55;;;;;;;5.02;57.62;98139.59;2203920;79;21302;-72
2021/04/07 12:23:49;;;;;;;13.90;2.80;;;;;;;4.29;60.59;98148.69;2202332;80;21300;-72
2021/04/07 12:26:51;;;;;;;14.63;3.42;;;;;;;3.27;63.33;98152.31;2206537;80;21653;-72
2021/04/07 12:29:53;;;;;;;14.90;3.60;;;;;;;2.36;64.85;98146.44;2207813;80;21768;-73
2021/04/07 12:32:57;;;;;;;17.95;4.00;;;;;;;2.14;64.66;98149.02;2197811;80;21295;-73
2021/04/07 12:36:00;;;;;;;15.70;3.58;;;;;;;2.13;63.53;98138.73;2199781;79;21344;-73
2021/04/07 12:39:02;;;;;;;12.03;3.25;;;;;;;2.29;61.26;98141.11;2199590;79;21154;-73
2021/04/07 12:42:07;;;;;;;19.25;4.20;;;;;;;2.43;59.68;98146.59;2212358;80;21312;-72
2021/04/07 12:45:08;;;;;;;17.15;4.05;;;;;;;2.46;59.38;98150.81;2194617;80;21286;-72
2021/04/07 12:48:10;;;;;;;14.90;3.27;;;;;;;2.51;59.00;98157.11;2210102;80;21304;-72
2021/04/07 12:54:26;;;;;;;12.25;3.00;;;;;;;2.28;63.61;98160.12;2273777;77;23362;-74
2021/04/07 12:57:28;;;;;;;14.45;3.30;;;;;;;2.22;67.32;98172.00;2270577;78;21137;-73
2021/04/07 13:00:30;;;;;;;13.13;3.45;;;;;;;2.49;67.62;98166.69;2270758;78;21573;-74
2021/04/07 13:03:31;;;;;;;14.15;3.55;;;;;;;2.83;66.56;98162.32;2270737;78;21169;-74
2021/04/07 13:06:32;;;;;;;15.32;3.33;;;;;;;3.47;64.82;98148.87;2270516;78;21692;-73
2021/04/07 13:09:33;;;;;;;15.15;3.75;;;;;;;3.93;62.70;98147.32;2270522;78;21560;-74
2021/04/07 13:12:34;;;;;;;15.30;3.75;;;;;;;4.43;59.83;98148.05;2270357;78;21161;-74
2021/04/07 13:15:35;;;;;;;18.75;4.35;;;;;;;4.86;61.53;98141.28;2240427;78;21713;-73
2021/04/07 13:18:36;;;;;;;13.13;3.70;;;;;;;5.09;57.68;98135.42;2270779;78;21244;-74
2021/04/07 13:21:38;;;;;;;12.07;3.25;;;;;;;5.28;55.25;98145.27;2270380;78;21122;-74
2021/04/07 13:24:39;;;;;;;13.28;3.52;;;;;;;4.66;56.43;98152.16;2271039;78;21288;-73
2021/04/07 13:27:40;;;;;;;15.88;3.40;;;;;;;4.10;58.28;98155.19;2270916;78;21158;-73
2021/04/07 13:30:47;;;;;;;15.53;3.50;;;;;;;3.79;59.30;98156.57;2270768;78;21157;-73
2021/04/07 13:33:50;;;;;;;14.65;3.55;;;;;;;3.59;59.03;98152.69;2270320;78;21114;-74
2021/04/07 13:36:58;;;;;;;11.78;3.10;;;;;;;3.54;60.69;98144.28;2270341;78;21288;-73
2021/04/07 13:40:00;;;;;;;11.00;3.30;;;;;;;3.70;57.48;98136.67;2269772;78;22198;-73
2021/04/07 13:43:01;;;;;;;14.85;3.37;;;;;;;4.28;56.81;98130.59;2270379;78;21158;-73
2021/04/07 13:46:02;;;;;;;16.20;3.72;;;;;;;4.71;55.05;98133.75;2270340;78;21577;-73
2021/04/07 13:49:03;;;;;;;17.35;4.05;;;;;;;4.78;57.27;98142.09;2270571;78;21146;-74
2021/04/07 13:52:05;;;;;;;14.90;3.70;;;;;;;4.49;58.91;98156.84;2269263;78;21130;-73
2021/04/07 13:55:06;;;;;;;16.23;4.08;;;;;;;4.18;59.49;98150.96;2259941;79;21075;-74
2021/04/07 13:58:10;;;;;;;16.95;3.95;;;;;;;4.48;59.33;98175.10;2260003;78;21729;-74
2021/04/07 14:01:11;;;;;;;14.30;3.20;;;;;;;5.10;58.47;98148.77;2259991;79;21605;-74
2021/04/07 14:04:12;;;;;;;14.07;3.60;;;;;;;5.49;56.43;98177.16;2259979;78;21281;-74
2021/04/07 14:07:16;;;;;;;10.98;3.22;;;;;;;5.14;55.42;98165.91;2259271;79;21709;-74
2021/04/07 14:10:19;;;;;;;12.47;2.90;;;;;;;5.18;55.05;98153.14;2259271;79;21300;-74
2021/04/07 14:13:19;;;;;;;11.85;3.10;;;;;;;5.54;53.96;98161.31;2259254;79;21296;-74
2021/04/07 14:16:21;;;;;;;9.38;2.55;;;;;;;5.61;49.21;98163.15;2259615;78;21126;-74